• Join FlightAware (Why Join?)
  • Login
  • US Flag 
09:12AM EDT


 

Airport Tracker/Info


-or-


 

Live Flight TrackerFlight Track Log ✈ N98RD ✈ 23-Jun-2013 ✈ KCHA - KPTS

Flight Track Log - Related Links

Times and Time Zones

All times are in EDT time to prevent confusion due to time zone crossing. See the N98RD flight status page for this flight to view local times or setup timezone preferences in your user account.

Time Position Orientation Groundspeed Altitude Reporting Facility
EDT Latitude Longitude Course Direction KTS MPH feet Rate Location/Type
12:52PM 35.1722 -85.6555 287° West  Level FlightAware Approximate
12:53PM 35.1917 -85.7333 287° West  Level FlightAware Approximate
12:53PM 35.0803 -85.5308 292° West 157 181 8,700  Level Memphis Center
12:54PM 35.2111 -85.8110 287° West  Level FlightAware Approximate
12:54PM 35.0969 -85.5808 292° West 157 181 9,800  Level Memphis Center
12:55PM 35.2323 -85.8880 289° West  Level FlightAware Approximate
12:55PM 35.1092 -85.6308 287° West 152 175 10,800  Level Memphis Center
12:56PM 35.2538 -85.9650 287° West  Level FlightAware Approximate
12:56PM 35.1236 -85.6833 289° West 152 175 11,900  Level Memphis Center
12:57PM 35.2732 -86.0428 287° West  Level FlightAware Approximate
12:57PM 35.1381 -85.7333 289° West 157 181 13,000  Level Memphis Center
12:58PM 35.2954 -86.1195 292° West  Level FlightAware Approximate
12:58PM 35.1547 -85.7858 291° West 162 186 14,000  Level Memphis Center
12:59PM 35.1692 -85.8383 289° West 167 192 14,800 780 Climbing Memphis Center
01:00PM 35.1878 -85.8931 293° West 167 192 15,600 900 Climbing Memphis Center
01:01PM 35.2042 -85.9481 290° West 172 198 16,600 960 Climbing Memphis Center
01:02PM 35.2186 -86.0008 289° West 166 191 17,600 720 Climbing Memphis Center
01:03PM 35.2350 -86.0508 292° West 166 191 18,100 660 Climbing Memphis Center
01:04PM 35.2494 -86.1033 289° West 166 191 19,000 720 Climbing Memphis Center
01:05PM 35.2658 -86.1558 291° West 166 191 19,600 300 Climbing Memphis Center
01:06PM 35.2844 -86.2186 290° West 179 206 19,700 120 Climbing Memphis Center
01:07PM 35.3033 -86.2864 289° West 200 230 19,900 120 Climbing Memphis Center
01:08PM 35.3244 -86.3514 292° West 205 236 20,000 60 Climbing Memphis Center
01:09PM 35.3411 -86.4194 287° West 216 249 20,100  Climbing Memphis Center
01:10PM 35.3622 -86.4897 290° West 227 261 20,000 -60 Descending Memphis Center
01:11PM 35.3853 -86.5625 291° West 227 261 20,000 -60 Level Memphis Center
01:12PM 35.4061 -86.6328 290° West 227 261 19,900 -60 Descending Memphis Center
01:13PM 35.4272 -86.7108 288° West 227 261 19,900  Level Memphis Center
01:14PM 35.4503 -86.7839 291° West 227 261 19,900  Level Memphis Center
01:15PM 35.4733 -86.8619 290° West 227 261 19,900  Level Memphis Center
01:16PM 35.4942 -86.9350 289° West 227 261 19,900  Level Memphis Center
01:17PM 35.5169 -87.0081 291° West 227 261 20,000  Climbing Memphis Center
01:18PM 35.5375 -87.0811 289° West 227 261 20,000 -60 Level Memphis Center
01:19PM 35.5561 -87.1544 287° West 227 261 19,900 -60 Descending Memphis Center
01:20PM 35.5789 -87.2250 292° West 227 261 19,900  Level Memphis Center
01:21PM 35.5994 -87.2983 289° West 227 261 19,900  Level Memphis Center
01:22PM 35.6222 -87.3739 290° West 227 261 19,900  Level Memphis Center
01:23PM 35.6383 -87.4372 287° West 227 261 19,900  Level Memphis Center
01:24PM 35.6608 -87.5081 291° West 227 261 19,900  Level Memphis Center
01:25PM 35.6792 -87.5814 287° West 227 261 20,000  Climbing Memphis Center
01:26PM 35.7036 -87.6547 292° West 227 261 19,900 -60 Descending Memphis Center
01:27PM 35.7219 -87.7308 287° West 227 261 19,900  Level Memphis Center
01:28PM 35.7444 -87.8094 289° West 227 261 19,900  Level Memphis Center
01:29PM 35.7669 -87.8831 291° West 227 261 19,900  Level Memphis Center
01:30PM 35.7869 -87.9567 289° West 227 261 20,000  Climbing Memphis Center
01:31PM 35.8072 -88.0303 289° West 227 261 20,000 -60 Level Memphis Center
01:32PM 35.8294 -88.1064 290° West 227 261 19,900  Descending Memphis Center
01:33PM 35.8517 -88.1775 291° West 227 261 20,000  Climbing Memphis Center
01:34PM 35.8739 -88.2539 290° West 227 261 19,900 -60 Descending Memphis Center
01:35PM 35.8917 -88.3303 286° West 227 261 19,900  Level Memphis Center
01:36PM 35.9139 -88.4039 290° West 232 267 19,900  Level Memphis Center
01:37PM 35.9317 -88.4728 288° West 232 267 19,900  Level Memphis Center
01:38PM 35.9536 -88.5619 287° West 232 267 19,900  Level Memphis Center
01:39PM 35.9756 -88.6386 289° West 232 267 19,900  Level Memphis Center
01:40PM 35.9953 -88.7100 289° West 227 261 19,900  Level Memphis Center
01:41PM 36.0153 -88.7864 288° West 227 261 19,900  Level Memphis Center
01:42PM 36.0347 -88.8606 288° West 227 261 19,900  Level Memphis Center
01:43PM 36.0544 -88.9347 288° West 227 261 19,900  Level Memphis Center
01:44PM 36.0742 -89.0114 288° West 227 261 19,900  Level Memphis Center
01:45PM 36.0936 -89.0881 287° West 227 261 19,900  Level Memphis Center
01:46PM 36.1131 -89.1622 288° West 227 261 19,900  Level Memphis Center
01:47PM 36.1328 -89.2392 288° West 227 261 19,900  Level Memphis Center
01:48PM 36.1542 -89.3158 289° West 227 261 19,900  Level Memphis Center
01:49PM 36.1736 -89.3928 287° West 227 261 19,900  Level Memphis Center
01:50PM 36.1928 -89.4697 287° West 227 261 19,900  Level Memphis Center
01:51PM 36.2164 -89.5442 291° West 232 267 19,900  Level Memphis Center
01:52PM 36.2356 -89.6236 287° West 232 267 19,900  Level Memphis Center
01:53PM 36.2569 -89.7006 289° West 237 273 19,900  Level Memphis Center
01:54PM 36.2781 -89.7856 287° West 237 273 19,900  Level Memphis Center
01:55PM 36.2972 -89.8650 287° West 237 273 19,900  Level Memphis Center
01:56PM 36.3183 -89.9397 289° West 242 278 19,900  Level Memphis Center
01:57PM 36.3375 -90.0142 288° West 237 273 19,900  Level Memphis Center
01:58PM 36.3583 -90.0942 288° West 237 273 19,900  Level Memphis Center
01:59PM 36.3772 -90.1689 287° West 242 278 19,900  Level Memphis Center
02:00PM 36.3983 -90.2461 289° West 242 278 19,900  Level Memphis Center
02:01PM 36.4172 -90.3233 287° West 242 278 19,900  Level Memphis Center
02:02PM 36.4381 -90.4033 288° West 242 278 19,900  Level Memphis Center
02:03PM 36.4586 -90.4783 289° West 242 278 19,900  Level Memphis Center
02:05PM 36.4900 -90.5983 288° West 237 273 19,900  Level Kansas City Center
02:06PM 36.5094 -90.6772 287° West 238 274 19,900  Level Kansas City Center
02:07PM 36.5289 -90.7553 287° West 238 274 19,900  Level Kansas City Center
02:08PM 36.5489 -90.8333 288° West 237 273 19,900  Level Kansas City Center
02:09PM 36.5731 -90.9261 288° West 236 272 19,900  Level Kansas City Center
02:10PM 36.5917 -91.0050 286° West 236 272 19,900  Level Kansas City Center
02:11PM 36.6131 -91.1067 285° West 242 278 20,000  Climbing Memphis Center
02:12PM 36.6328 -91.1631 294° West 238 274 19,900  Descending Kansas City Center
02:13PM 36.6514 -91.2422 286° West 238 274 20,000  Climbing Kansas City Center
02:14PM 36.6697 -91.3214 286° West 238 274 19,900 -60 Descending Kansas City Center
02:15PM 36.6894 -91.4011 287° West 240 276 19,900  Level Kansas City Center
02:16PM 36.7125 -91.4975 287° West 241 277 19,900  Level Kansas City Center
02:17PM 36.7317 -91.5767 287° West 240 276 19,900  Level Kansas City Center
02:18PM 36.7522 -91.6556 288° West 239 275 20,000  Climbing Kansas City Center
02:19PM 36.7700 -91.7344 286° West 237 273 19,900 -240 Descending Kansas City Center
02:20PM 36.7894 -91.8144 287° West 238 274 19,600 -720 Descending Kansas City Center
02:21PM 36.8106 -91.8983 287° West 247 284 18,500 -960 Descending Kansas City Center
02:22PM 36.8322 -91.9861 287° West 258 297 17,700 -780 Descending Kansas City Center
02:23PM 36.8564 -92.0892 286° West 259 298 16,900 -780 Descending Kansas City Center
02:24PM 36.8769 -92.1739 287° West 257 296 16,100 -540 Descending Kansas City Center
02:25PM 36.8975 -92.2550 288° West 252 290 15,900 -120 Descending Kansas City Center
02:26PM 36.9131 -92.3328 284° West 243 280 15,900 -240 Level Kansas City Center
02:27PM 36.9314 -92.4078 287° West 235 270 15,500 -540 Descending Kansas City Center
02:28PM 36.9494 -92.4858 286° West 233 268 14,900 -780 Descending Kansas City Center
02:29PM 36.9678 -92.5642 286° West 232 267 14,000 -960 Descending Kansas City Center
02:31PM 36.9914 -92.6642 286° West 243 280 13,000 -900 Descending Kansas City Center
02:32PM 37.0094 -92.7464 285° West 246 283 12,200 -780 Descending Kansas City Center
02:33PM 37.0286 -92.8261 287° West 241 277 11,500 -900 Descending Kansas City Center
02:34PM 37.0475 -92.9069 286° West 241 277 10,400 -960 Descending Kansas City Center
02:35PM 37.0650 -92.9850 286° West 237 273 9,600 -720 Descending Kansas City Center
02:36PM 37.0956 -93.0514 300° West 229 264 9,000 -300 Descending Kansas City Center
02:37PM 37.1183 -93.1194 293° West 221 254 9,000 -360 Level Kansas City Center
02:38PM 37.1397 -93.2031 288° West 213 245 8,300 -600 Descending Kansas City Center
02:39PM 37.1561 -93.2753 286° West 214 246 7,800 -540 Descending Kansas City Center
02:40PM 37.1719 -93.3472 285° West 214 246 7,200 -780 Descending Kansas City Center
02:41PM 37.1836 -93.4239 281° West 218 251 6,200 -660 Descending Kansas City Center
02:42PM 37.1911 -93.5025 277° West 224 258 5,900 -360 Descending Kansas City Center
02:43PM 37.2011 -93.5736 280° West 212 244 5,500 -420 Descending Kansas City Center